METAR Data
IDs: Format: Raw Decoded Include TAF

Data at: 2109 UTC 08 Aug 2020

KMLB 082053Z 07009KT 10SM CLR 31/26 A3011 RMK AO2 SLP196 T03110256 55009

KMLB 081721Z 0818/0918 08010KT P6SM FEW030 SCT250
  FM090100 12005KT P6SM SCT250
  FM091500 10006KT P6SM SCT025 SCT250


KTIX 082047Z 10008KT 7SM SCT070 35/24 A3012

KTIX 081721Z 0818/0918 08009KT P6SM SCT030 SCT250
  FM090000 VRB03KT P6SM FEW060 SCT250
  FM091500 10006KT P6SM FEW025 SCT250


KCOF 082056Z AUTO 07009KT 10SM CLR 31/24 A3012 RMK AO2 SLP204 T03080242 55008 $

TAF KCOF 081800Z 0818/0924 VRB05KT 9999 FEW030 SCT150 QNH3010INS
  BECMG 0901/0902 14006KT 9999 SCT030 QNH3009INS TX32/0818Z TN26/0910Z LAST NO AMDS AFT 0821 NEXT 0910


KVRB 082053Z 08007KT 10SM FEW032 32/24 A3013 RMK AO2 LTG DSNT E SLP201 T03170239 55004

KVRB 081721Z 0818/0918 08010KT P6SM FEW025 SCT250
  FM090100 11005KT P6SM SCT250
  FM091500 10006KT P6SM SCT025 SCT250